الصفحة الرئيسية
METAR-TAF:

METAR-TAF

مطار :

مطار رشت الدولي

رشت, إيران

دائرة عرض: 37-12N, خط طول: 049-38E, ارتفاع: -7 متر

مراقبة الطقس الحالي

تاريخ ووقت الإصدار 1ساعة و 17 دقيقة قبل الساعة 22:00UTC
رياح هادئة
درجة الحرارة 23°درجة مئوية
الرطوبة 100%
ضغط 1006 hPa
الرؤية: 5000 متر
غيوم قليلة على ارتفاع 3000 قدم, مزنة ركامية.
غيوم متفرقة على ارتفاع 20000 قدم
غشاء,

METAR: OIGG 242200Z 00000KT 5000 BR FEW030CB SCT200 23/23 Q1006

زمن: 03:47 (23:17 UTC)

توقعات

تاريخ ووقت الإصدار 2ساعات و 37 دقيقة قبل الساعة 20:40UTC
التوقعات صالحة من24 الساعة 21 UTC إلى 25 الساعة 06 UTC
ريح 4 عقدة من الجنوب/الجنوب الغربي
الرؤية: 6000 متر
غيوم قليلة على ارتفاع 3000 قدم, مزنة ركامية.
مؤقت
من 24 الساعة 22 UTC إلى 25 الساعة 03 UTC
الرؤية: 4000 متر
غيوم مفككة على ارتفاع 1500 قدم
غشاء
مؤقت
من 25 الساعة 06 UTC إلى 25 الساعة 12 UTC
ريح 12 عقدة من الشرق/الشمال الشرقي
غيوم قليلة على ارتفاع 2000 قدم, مزنة ركامية.
غيوم متفرقة على ارتفاع 2500 قدم
غيوم مفككة على ارتفاع 7000 قدم

TAF: OIGG 242040Z 2421/2506 20004KT 6000 FEW030CB TEMPO 2422/2503 4000 BR BKN015 TEMPO 2506/2512 06012KT FEW020CB SCT025 BKN070

أرصاد الطقس والتوقعات من أكثر من 4000 مطار (تقارير الطقس للمطار METAR والتنبؤ بالطقس بالمطارTAF).

المحطات المتاحة هي النقط الصفراء والحمراء على الخريطة.

حرك المؤشر فوق النقطة لمعرفة اسم المحطة.

ثم انقر لمعرفة أرصاد وتوقعات الطقس.

لتغيير الخارطة: اضغط على الأزرار الخضراء مع رمز الصليب الأسود للتكبير. على الزر الأخضر مع شرطة للتصغير، أو على الأسهم الخضراء للخرائط المجاورة.


METAR-TAF: